sensor_id;sensor_type;location;lat;lon;timestamp;P1;durP1;ratioP1;P2;durP2;ratioP2
61085;SDS011;46967;48.876;2.136;2022-10-13T00:00:39;9.63;;;4.00;;
61085;SDS011;46967;48.876;2.136;2022-10-13T00:03:05;6.85;;;3.70;;
61085;SDS011;46967;48.876;2.136;2022-10-13T00:05:31;5.28;;;3.45;;
61085;SDS011;46967;48.876;2.136;2022-10-13T00:07:56;8.88;;;3.75;;
61085;SDS011;46967;48.876;2.136;2022-10-13T00:10:23;7.95;;;3.75;;
61085;SDS011;46967;48.876;2.136;2022-10-13T00:12:49;5.78;;;3.78;;
61085;SDS011;46967;48.876;2.136;2022-10-13T00:15:15;10.43;;;4.13;;
61085;SDS011;46967;48.876;2.136;2022-10-13T00:17:40;6.00;;;3.50;;
61085;SDS011;46967;48.876;2.136;2022-10-13T00:20:06;10.45;;;3.65;;
61085;SDS011;46967;48.876;2.136;2022-10-13T00:22:32;7.72;;;3.22;;
61085;SDS011;46967;48.876;2.136;2022-10-13T00:24:58;8.43;;;3.10;;
61085;SDS011;46967;48.876;2.136;2022-10-13T00:27:23;7.90;;;3.30;;
61085;SDS011;46967;48.876;2.136;2022-10-13T00:29:48;8.13;;;3.55;;
61085;SDS011;46967;48.876;2.136;2022-10-13T00:32:14;6.95;;;4.15;;
61085;SDS011;46967;48.876;2.136;2022-10-13T00:34:39;8.18;;;3.42;;
61085;SDS011;46967;48.876;2.136;2022-10-13T00:37:06;7.22;;;3.35;;
61085;SDS011;46967;48.876;2.136;2022-10-13T00:39:31;8.30;;;3.28;;
61085;SDS011;46967;48.876;2.136;2022-10-13T00:41:57;9.05;;;3.50;;
61085;SDS011;46967;48.876;2.136;2022-10-13T00:47:19;6.72;;;3.08;;
61085;SDS011;46967;48.876;2.136;2022-10-13T00:49:45;12.07;;;3.33;;
61085;SDS011;46967;48.876;2.136;2022-10-13T00:52:12;8.65;;;3.17;;
61085;SDS011;46967;48.876;2.136;2022-10-13T00:54:39;6.75;;;3.10;;
61085;SDS011;46967;48.876;2.136;2022-10-13T00:57:04;8.43;;;3.20;;
61085;SDS011;46967;48.876;2.136;2022-10-13T00:59:32;6.22;;;3.30;;
61085;SDS011;46967;48.876;2.136;2022-10-13T01:01:58;6.43;;;2.75;;
61085;SDS011;46967;48.876;2.136;2022-10-13T01:04:27;6.60;;;3.17;;
61085;SDS011;46967;48.876;2.136;2022-10-13T01:06:57;9.05;;;3.95;;
61085;SDS011;46967;48.876;2.136;2022-10-13T01:09:23;9.75;;;3.38;;
61085;SDS011;46967;48.876;2.136;2022-10-13T01:11:52;8.25;;;3.30;;
61085;SDS011;46967;48.876;2.136;2022-10-13T01:14:44;9.25;;;3.33;;
61085;SDS011;46967;48.876;2.136;2022-10-13T01:17:25;6.05;;;3.30;;
61085;SDS011;46967;48.876;2.136;2022-10-13T01:31:33;10.13;;;3.75;;
61085;SDS011;46967;48.876;2.136;2022-10-13T01:34:17;10.25;;;3.60;;
61085;SDS011;46967;48.876;2.136;2022-10-13T01:36:54;14.82;;;4.10;;
61085;SDS011;46967;48.876;2.136;2022-10-13T01:39:43;16.67;;;4.95;;
61085;SDS011;46967;48.876;2.136;2022-10-13T01:42:17;8.65;;;4.30;;
61085;SDS011;46967;48.876;2.136;2022-10-13T01:44:49;8.07;;;4.32;;
61085;SDS011;46967;48.876;2.136;2022-10-13T01:47:18;11.98;;;4.68;;
61085;SDS011;46967;48.876;2.136;2022-10-13T01:49:46;7.78;;;3.60;;
61085;SDS011;46967;48.876;2.136;2022-10-13T01:52:15;9.93;;;4.20;;
61085;SDS011;46967;48.876;2.136;2022-10-13T01:54:46;11.75;;;5.22;;
61085;SDS011;46967;48.876;2.136;2022-10-13T01:57:30;10.82;;;4.43;;
61085;SDS011;46967;48.876;2.136;2022-10-13T01:59:58;9.10;;;3.80;;
61085;SDS011;46967;48.876;2.136;2022-10-13T02:02:27;7.97;;;4.10;;
61085;SDS011;46967;48.876;2.136;2022-10-13T02:10:12;13.38;;;5.43;;
61085;SDS011;46967;48.876;2.136;2022-10-13T02:12:48;10.43;;;4.07;;
61085;SDS011;46967;48.876;2.136;2022-10-13T02:15:20;11.55;;;3.70;;
61085;SDS011;46967;48.876;2.136;2022-10-13T02:17:50;10.05;;;3.72;;
61085;SDS011;46967;48.876;2.136;2022-10-13T02:20:16;7.82;;;3.65;;
61085;SDS011;46967;48.876;2.136;2022-10-13T02:22:44;12.38;;;4.05;;
61085;SDS011;46967;48.876;2.136;2022-10-13T02:25:11;6.32;;;3.47;;
61085;SDS011;46967;48.876;2.136;2022-10-13T02:27:37;10.25;;;4.40;;
61085;SDS011;46967;48.876;2.136;2022-10-13T02:30:03;10.50;;;4.38;;
61085;SDS011;46967;48.876;2.136;2022-10-13T02:32:29;10.13;;;3.83;;
61085;SDS011;46967;48.876;2.136;2022-10-13T02:34:54;17.90;;;4.10;;
61085;SDS011;46967;48.876;2.136;2022-10-13T02:37:20;8.18;;;3.50;;
61085;SDS011;46967;48.876;2.136;2022-10-13T02:39:45;10.85;;;3.65;;
61085;SDS011;46967;48.876;2.136;2022-10-13T02:42:11;10.43;;;3.55;;
61085;SDS011;46967;48.876;2.136;2022-10-13T02:44:36;11.35;;;3.45;;
61085;SDS011;46967;48.876;2.136;2022-10-13T02:47:03;13.40;;;3.40;;
61085;SDS011;46967;48.876;2.136;2022-10-13T02:49:28;6.97;;;3.30;;
61085;SDS011;46967;48.876;2.136;2022-10-13T02:51:54;8.35;;;3.55;;
61085;SDS011;46967;48.876;2.136;2022-10-13T02:54:19;10.15;;;3.50;;
61085;SDS011;46967;48.876;2.136;2022-10-13T02:56:44;11.40;;;5.70;;
61085;SDS011;46967;48.876;2.136;2022-10-13T02:59:10;12.20;;;3.75;;
61085;SDS011;46967;48.876;2.136;2022-10-13T03:01:36;12.63;;;3.80;;
61085;SDS011;46967;48.876;2.136;2022-10-13T03:04:05;14.98;;;4.13;;
61085;SDS011;46967;48.876;2.136;2022-10-13T03:06:33;7.95;;;4.30;;
61085;SDS011;46967;48.876;2.136;2022-10-13T03:08:59;12.90;;;4.05;;
61085;SDS011;46967;48.876;2.136;2022-10-13T03:11:24;10.75;;;3.63;;
61085;SDS011;46967;48.876;2.136;2022-10-13T03:13:50;8.32;;;3.50;;
61085;SDS011;46967;48.876;2.136;2022-10-13T03:16:15;6.65;;;3.33;;
61085;SDS011;46967;48.876;2.136;2022-10-13T03:18:40;10.05;;;3.80;;
61085;SDS011;46967;48.876;2.136;2022-10-13T03:21:06;11.98;;;3.75;;
61085;SDS011;46967;48.876;2.136;2022-10-13T03:23:32;8.45;;;3.45;;
61085;SDS011;46967;48.876;2.136;2022-10-13T03:25:57;10.07;;;3.40;;
61085;SDS011;46967;48.876;2.136;2022-10-13T03:28:23;9.98;;;3.95;;
61085;SDS011;46967;48.876;2.136;2022-10-13T03:30:48;14.25;;;4.07;;
61085;SDS011;46967;48.876;2.136;2022-10-13T03:33:14;10.32;;;3.72;;
61085;SDS011;46967;48.876;2.136;2022-10-13T03:35:39;11.52;;;4.10;;
61085;SDS011;46967;48.876;2.136;2022-10-13T03:38:04;10.02;;;3.97;;
61085;SDS011;46967;48.876;2.136;2022-10-13T03:40:30;10.43;;;3.45;;
61085;SDS011;46967;48.876;2.136;2022-10-13T03:42:55;9.88;;;4.20;;
61085;SDS011;46967;48.876;2.136;2022-10-13T03:45:20;16.02;;;4.00;;
61085;SDS011;46967;48.876;2.136;2022-10-13T03:47:46;12.38;;;3.85;;
61085;SDS011;46967;48.876;2.136;2022-10-13T03:50:11;8.38;;;3.58;;
61085;SDS011;46967;48.876;2.136;2022-10-13T03:52:37;9.48;;;3.58;;
61085;SDS011;46967;48.876;2.136;2022-10-13T03:55:02;13.18;;;5.15;;
61085;SDS011;46967;48.876;2.136;2022-10-13T03:57:28;7.28;;;3.50;;
61085;SDS011;46967;48.876;2.136;2022-10-13T03:59:54;7.25;;;3.50;;
61085;SDS011;46967;48.876;2.136;2022-10-13T04:02:21;8.85;;;3.85;;
61085;SDS011;46967;48.876;2.136;2022-10-13T04:04:47;12.45;;;4.55;;
61085;SDS011;46967;48.876;2.136;2022-10-13T04:07:12;9.88;;;3.92;;
61085;SDS011;46967;48.876;2.136;2022-10-13T04:09:37;10.05;;;3.45;;
61085;SDS011;46967;48.876;2.136;2022-10-13T04:12:03;10.32;;;3.88;;
61085;SDS011;46967;48.876;2.136;2022-10-13T04:14:29;9.65;;;3.70;;
61085;SDS011;46967;48.876;2.136;2022-10-13T04:16:54;12.10;;;3.83;;
61085;SDS011;46967;48.876;2.136;2022-10-13T04:19:20;7.25;;;3.95;;
61085;SDS011;46967;48.876;2.136;2022-10-13T04:21:45;12.40;;;3.85;;
61085;SDS011;46967;48.876;2.136;2022-10-13T04:24:11;6.90;;;3.30;;
61085;SDS011;46967;48.876;2.136;2022-10-13T04:26:37;9.00;;;3.95;;
61085;SDS011;46967;48.876;2.136;2022-10-13T04:29:03;6.57;;;3.70;;
61085;SDS011;46967;48.876;2.136;2022-10-13T04:31:30;15.75;;;3.60;;
61085;SDS011;46967;48.876;2.136;2022-10-13T04:33:55;7.00;;;3.53;;
61085;SDS011;46967;48.876;2.136;2022-10-13T04:36:21;9.00;;;3.33;;
61085;SDS011;46967;48.876;2.136;2022-10-13T04:38:47;10.00;;;3.35;;
61085;SDS011;46967;48.876;2.136;2022-10-13T04:41:14;7.50;;;3.80;;
61085;SDS011;46967;48.876;2.136;2022-10-13T04:43:40;6.13;;;3.50;;
61085;SDS011;46967;48.876;2.136;2022-10-13T04:46:07;9.02;;;3.83;;
61085;SDS011;46967;48.876;2.136;2022-10-13T04:48:36;6.72;;;3.38;;
61085;SDS011;46967;48.876;2.136;2022-10-13T04:51:03;12.43;;;3.88;;
61085;SDS011;46967;48.876;2.136;2022-10-13T04:53:30;7.50;;;3.50;;
61085;SDS011;46967;48.876;2.136;2022-10-13T04:56:03;6.38;;;3.03;;
61085;SDS011;46967;48.876;2.136;2022-10-13T04:58:31;7.85;;;3.90;;
61085;SDS011;46967;48.876;2.136;2022-10-13T05:00:56;9.02;;;4.15;;
61085;SDS011;46967;48.876;2.136;2022-10-13T05:03:22;13.10;;;3.78;;
61085;SDS011;46967;48.876;2.136;2022-10-13T05:05:49;7.45;;;3.72;;
61085;SDS011;46967;48.876;2.136;2022-10-13T05:08:14;10.10;;;3.63;;
61085;SDS011;46967;48.876;2.136;2022-10-13T05:10:40;8.85;;;3.50;;
61085;SDS011;46967;48.876;2.136;2022-10-13T05:13:05;9.35;;;3.40;;
61085;SDS011;46967;48.876;2.136;2022-10-13T05:15:31;6.60;;;3.10;;
61085;SDS011;46967;48.876;2.136;2022-10-13T05:17:57;8.23;;;4.05;;
61085;SDS011;46967;48.876;2.136;2022-10-13T05:20:23;9.20;;;3.63;;
61085;SDS011;46967;48.876;2.136;2022-10-13T05:22:49;12.25;;;3.88;;
61085;SDS011;46967;48.876;2.136;2022-10-13T05:25:14;11.50;;;3.05;;
61085;SDS011;46967;48.876;2.136;2022-10-13T05:27:40;11.30;;;3.47;;
61085;SDS011;46967;48.876;2.136;2022-10-13T05:30:05;10.02;;;3.75;;
61085;SDS011;46967;48.876;2.136;2022-10-13T05:32:33;9.25;;;3.35;;
61085;SDS011;46967;48.876;2.136;2022-10-13T05:34:59;7.45;;;4.22;;
61085;SDS011;46967;48.876;2.136;2022-10-13T05:37:24;6.72;;;3.17;;
61085;SDS011;46967;48.876;2.136;2022-10-13T05:39:49;10.05;;;3.78;;
61085;SDS011;46967;48.876;2.136;2022-10-13T05:42:15;8.23;;;4.28;;
61085;SDS011;46967;48.876;2.136;2022-10-13T05:44:40;9.52;;;3.65;;
61085;SDS011;46967;48.876;2.136;2022-10-13T05:47:05;7.97;;;3.78;;
61085;SDS011;46967;48.876;2.136;2022-10-13T05:49:31;8.93;;;3.90;;
61085;SDS011;46967;48.876;2.136;2022-10-13T05:51:58;9.25;;;3.88;;
61085;SDS011;46967;48.876;2.136;2022-10-13T05:54:27;8.32;;;4.05;;
61085;SDS011;46967;48.876;2.136;2022-10-13T05:56:59;10.45;;;3.28;;
61085;SDS011;46967;48.876;2.136;2022-10-13T05:59:25;9.52;;;3.78;;
61085;SDS011;46967;48.876;2.136;2022-10-13T06:01:54;9.30;;;2.95;;
61085;SDS011;46967;48.876;2.136;2022-10-13T06:04:21;10.70;;;3.20;;
61085;SDS011;46967;48.876;2.136;2022-10-13T06:06:49;8.27;;;3.22;;
61085;SDS011;46967;48.876;2.136;2022-10-13T06:09:15;6.57;;;3.08;;
61085;SDS011;46967;48.876;2.136;2022-10-13T06:11:41;9.38;;;3.38;;
61085;SDS011;46967;48.876;2.136;2022-10-13T06:14:07;7.10;;;2.58;;
61085;SDS011;46967;48.876;2.136;2022-10-13T06:16:33;5.70;;;2.70;;
61085;SDS011;46967;48.876;2.136;2022-10-13T06:19:00;7.35;;;3.05;;
61085;SDS011;46967;48.876;2.136;2022-10-13T06:21:25;10.95;;;2.90;;
61085;SDS011;46967;48.876;2.136;2022-10-13T06:23:51;10.38;;;2.70;;
61085;SDS011;46967;48.876;2.136;2022-10-13T06:26:16;11.45;;;3.53;;
61085;SDS011;46967;48.876;2.136;2022-10-13T06:28:41;8.07;;;2.90;;
61085;SDS011;46967;48.876;2.136;2022-10-13T06:31:06;11.50;;;2.67;;
61085;SDS011;46967;48.876;2.136;2022-10-13T06:33:32;6.80;;;2.80;;
61085;SDS011;46967;48.876;2.136;2022-10-13T06:36:02;11.48;;;3.20;;
61085;SDS011;46967;48.876;2.136;2022-10-13T06:38:29;8.80;;;2.80;;
61085;SDS011;46967;48.876;2.136;2022-10-13T06:40:58;5.75;;;2.45;;
61085;SDS011;46967;48.876;2.136;2022-10-13T06:43:24;9.23;;;2.92;;
61085;SDS011;46967;48.876;2.136;2022-10-13T06:45:49;10.30;;;2.53;;
61085;SDS011;46967;48.876;2.136;2022-10-13T06:48:14;8.70;;;2.65;;
61085;SDS011;46967;48.876;2.136;2022-10-13T06:50:40;7.22;;;2.28;;
61085;SDS011;46967;48.876;2.136;2022-10-13T06:53:05;9.43;;;2.72;;
61085;SDS011;46967;48.876;2.136;2022-10-13T06:55:31;10.75;;;2.58;;
61085;SDS011;46967;48.876;2.136;2022-10-13T06:57:56;7.63;;;2.25;;
61085;SDS011;46967;48.876;2.136;2022-10-13T07:00:22;8.15;;;2.08;;
61085;SDS011;46967;48.876;2.136;2022-10-13T07:02:50;7.47;;;2.88;;
61085;SDS011;46967;48.876;2.136;2022-10-13T07:05:16;13.00;;;3.60;;
61085;SDS011;46967;48.876;2.136;2022-10-13T07:07:42;7.75;;;2.95;;
61085;SDS011;46967;48.876;2.136;2022-10-13T07:10:07;9.02;;;2.83;;
61085;SDS011;46967;48.876;2.136;2022-10-13T07:12:33;9.70;;;3.00;;
61085;SDS011;46967;48.876;2.136;2022-10-13T07:14:58;6.68;;;2.42;;
61085;SDS011;46967;48.876;2.136;2022-10-13T07:17:24;6.88;;;3.35;;
61085;SDS011;46967;48.876;2.136;2022-10-13T07:19:49;8.20;;;2.35;;
61085;SDS011;46967;48.876;2.136;2022-10-13T07:22:14;9.43;;;2.88;;
61085;SDS011;46967;48.876;2.136;2022-10-13T07:24:41;9.85;;;2.88;;
61085;SDS011;46967;48.876;2.136;2022-10-13T07:27:06;5.20;;;3.40;;
61085;SDS011;46967;48.876;2.136;2022-10-13T07:29:32;7.00;;;2.50;;
61085;SDS011;46967;48.876;2.136;2022-10-13T07:31:57;8.90;;;2.70;;
61085;SDS011;46967;48.876;2.136;2022-10-13T07:34:22;6.40;;;2.63;;
61085;SDS011;46967;48.876;2.136;2022-10-13T07:36:48;7.78;;;2.47;;
61085;SDS011;46967;48.876;2.136;2022-10-13T07:39:13;8.20;;;2.85;;
61085;SDS011;46967;48.876;2.136;2022-10-13T07:41:38;9.35;;;2.45;;
61085;SDS011;46967;48.876;2.136;2022-10-13T07:44:05;9.70;;;2.65;;
61085;SDS011;46967;48.876;2.136;2022-10-13T07:46:30;10.88;;;3.00;;
61085;SDS011;46967;48.876;2.136;2022-10-13T07:48:55;9.48;;;2.28;;
61085;SDS011;46967;48.876;2.136;2022-10-13T07:51:21;9.52;;;2.10;;
61085;SDS011;46967;48.876;2.136;2022-10-13T07:53:47;6.78;;;2.30;;
61085;SDS011;46967;48.876;2.136;2022-10-13T07:56:13;6.95;;;2.38;;
61085;SDS011;46967;48.876;2.136;2022-10-13T07:58:40;8.88;;;2.45;;
61085;SDS011;46967;48.876;2.136;2022-10-13T08:01:08;4.70;;;2.00;;
61085;SDS011;46967;48.876;2.136;2022-10-13T08:03:34;7.50;;;2.22;;
61085;SDS011;46967;48.876;2.136;2022-10-13T08:06:00;10.00;;;2.63;;
61085;SDS011;46967;48.876;2.136;2022-10-13T08:08:27;9.88;;;2.05;;
61085;SDS011;46967;48.876;2.136;2022-10-13T08:10:53;7.00;;;2.33;;
61085;SDS011;46967;48.876;2.136;2022-10-13T08:13:18;8.98;;;2.25;;
61085;SDS011;46967;48.876;2.136;2022-10-13T08:15:44;9.10;;;2.40;;
61085;SDS011;46967;48.876;2.136;2022-10-13T08:18:10;9.18;;;2.15;;
61085;SDS011;46967;48.876;2.136;2022-10-13T08:20:41;9.68;;;2.35;;
61085;SDS011;46967;48.876;2.136;2022-10-13T08:23:07;5.13;;;1.80;;
61085;SDS011;46967;48.876;2.136;2022-10-13T08:25:37;9.07;;;2.13;;
61085;SDS011;46967;48.876;2.136;2022-10-13T08:28:23;7.10;;;1.92;;
61085;SDS011;46967;48.876;2.136;2022-10-13T08:30:50;7.03;;;1.70;;
61085;SDS011;46967;48.876;2.136;2022-10-13T08:33:17;18.00;;;3.00;;
61085;SDS011;46967;48.876;2.136;2022-10-13T08:35:44;7.53;;;1.75;;
61085;SDS011;46967;48.876;2.136;2022-10-13T08:38:10;16.73;;;2.03;;
61085;SDS011;46967;48.876;2.136;2022-10-13T08:40:36;7.05;;;1.80;;
61085;SDS011;46967;48.876;2.136;2022-10-13T08:43:06;9.73;;;1.70;;
61085;SDS011;46967;48.876;2.136;2022-10-13T08:45:32;6.50;;;1.60;;
61085;SDS011;46967;48.876;2.136;2022-10-13T08:50:28;12.20;;;2.00;;
61085;SDS011;46967;48.876;2.136;2022-10-13T08:52:56;11.50;;;2.35;;
61085;SDS011;46967;48.876;2.136;2022-10-13T08:55:32;7.33;;;1.67;;
61085;SDS011;46967;48.876;2.136;2022-10-13T08:58:01;7.85;;;1.77;;
61085;SDS011;46967;48.876;2.136;2022-10-13T09:00:36;6.43;;;2.20;;
61085;SDS011;46967;48.876;2.136;2022-10-13T09:03:13;8.10;;;1.90;;
61085;SDS011;46967;48.876;2.136;2022-10-13T09:05:51;9.32;;;1.92;;
61085;SDS011;46967;48.876;2.136;2022-10-13T09:08:21;4.78;;;1.42;;
61085;SDS011;46967;48.876;2.136;2022-10-13T09:10:49;6.03;;;1.77;;
61085;SDS011;46967;48.876;2.136;2022-10-13T09:13:15;6.45;;;2.28;;
61085;SDS011;46967;48.876;2.136;2022-10-13T09:15:42;6.80;;;1.50;;
61085;SDS011;46967;48.876;2.136;2022-10-13T09:18:10;8.52;;;2.00;;
61085;SDS011;46967;48.876;2.136;2022-10-13T09:20:37;9.40;;;2.55;;
61085;SDS011;46967;48.876;2.136;2022-10-13T09:23:04;9.15;;;2.08;;
61085;SDS011;46967;48.876;2.136;2022-10-13T09:25:38;7.90;;;1.90;;
61085;SDS011;46967;48.876;2.136;2022-10-13T09:28:48;7.18;;;1.60;;
61085;SDS011;46967;48.876;2.136;2022-10-13T09:31:13;4.32;;;1.42;;
61085;SDS011;46967;48.876;2.136;2022-10-13T09:33:41;6.35;;;1.58;;
61085;SDS011;46967;48.876;2.136;2022-10-13T09:36:08;4.60;;;1.77;;
61085;SDS011;46967;48.876;2.136;2022-10-13T09:38:35;3.88;;;1.40;;
61085;SDS011;46967;48.876;2.136;2022-10-13T09:43:38;4.07;;;1.33;;
61085;SDS011;46967;48.876;2.136;2022-10-13T09:46:17;5.40;;;1.40;;
61085;SDS011;46967;48.876;2.136;2022-10-13T09:48:46;5.22;;;1.42;;
61085;SDS011;46967;48.876;2.136;2022-10-13T09:54:01;6.68;;;1.83;;
61085;SDS011;46967;48.876;2.136;2022-10-13T09:56:35;8.63;;;2.05;;
61085;SDS011;46967;48.876;2.136;2022-10-13T09:59:26;7.70;;;2.10;;
61085;SDS011;46967;48.876;2.136;2022-10-13T10:01:57;8.00;;;1.83;;
61085;SDS011;46967;48.876;2.136;2022-10-13T10:04:29;7.93;;;2.30;;
61085;SDS011;46967;48.876;2.136;2022-10-13T10:06:59;9.65;;;1.98;;
61085;SDS011;46967;48.876;2.136;2022-10-13T10:12:04;5.60;;;1.80;;
61085;SDS011;46967;48.876;2.136;2022-10-13T10:14:34;6.85;;;1.75;;
61085;SDS011;46967;48.876;2.136;2022-10-13T10:25:18;8.98;;;1.95;;
61085;SDS011;46967;48.876;2.136;2022-10-13T10:27:48;9.32;;;2.08;;
61085;SDS011;46967;48.876;2.136;2022-10-13T10:30:19;6.60;;;1.60;;
61085;SDS011;46967;48.876;2.136;2022-10-13T10:32:52;10.30;;;1.90;;
61085;SDS011;46967;48.876;2.136;2022-10-13T10:40:43;6.22;;;1.75;;
61085;SDS011;46967;48.876;2.136;2022-10-13T10:43:38;5.25;;;1.52;;
61085;SDS011;46967;48.876;2.136;2022-10-13T10:46:15;6.45;;;1.67;;
61085;SDS011;46967;48.876;2.136;2022-10-13T10:48:49;6.90;;;1.73;;
61085;SDS011;46967;48.876;2.136;2022-10-13T10:51:18;6.25;;;1.33;;
61085;SDS011;46967;48.876;2.136;2022-10-13T10:53:47;7.13;;;1.48;;
61085;SDS011;46967;48.876;2.136;2022-10-13T10:58:50;3.72;;;1.30;;
61085;SDS011;46967;48.876;2.136;2022-10-13T11:01:31;5.72;;;2.03;;
61085;SDS011;46967;48.876;2.136;2022-10-13T11:06:56;12.07;;;2.45;;
61085;SDS011;46967;48.876;2.136;2022-10-13T11:19:54;6.22;;;1.70;;
61085;SDS011;46967;48.876;2.136;2022-10-13T11:22:21;8.70;;;2.03;;
61085;SDS011;46967;48.876;2.136;2022-10-13T11:27:45;7.47;;;1.70;;
61085;SDS011;46967;48.876;2.136;2022-10-13T11:39:40;6.60;;;1.92;;
61085;SDS011;46967;48.876;2.136;2022-10-13T11:50:06;6.15;;;2.00;;
61085;SDS011;46967;48.876;2.136;2022-10-13T11:55:55;6.53;;;3.25;;
61085;SDS011;46967;48.876;2.136;2022-10-13T11:58:25;8.13;;;2.30;;
61085;SDS011;46967;48.876;2.136;2022-10-13T12:00:59;7.85;;;2.72;;
61085;SDS011;46967;48.876;2.136;2022-10-13T12:03:31;4.43;;;2.10;;
61085;SDS011;46967;48.876;2.136;2022-10-13T12:06:02;7.25;;;2.40;;
61085;SDS011;46967;48.876;2.136;2022-10-13T12:08:33;5.03;;;2.33;;
61085;SDS011;46967;48.876;2.136;2022-10-13T12:11:00;7.75;;;2.50;;
61085;SDS011;46967;48.876;2.136;2022-10-13T12:13:31;6.32;;;2.70;;
61085;SDS011;46967;48.876;2.136;2022-10-13T12:15:59;7.38;;;2.53;;
61085;SDS011;46967;48.876;2.136;2022-10-13T12:21:01;7.50;;;2.60;;
61085;SDS011;46967;48.876;2.136;2022-10-13T12:23:29;5.65;;;2.30;;
61085;SDS011;46967;48.876;2.136;2022-10-13T12:25:56;5.95;;;2.47;;
61085;SDS011;46967;48.876;2.136;2022-10-13T12:28:23;7.05;;;2.90;;
61085;SDS011;46967;48.876;2.136;2022-10-13T12:31:14;5.18;;;2.22;;
61085;SDS011;46967;48.876;2.136;2022-10-13T12:33:57;5.35;;;2.65;;
61085;SDS011;46967;48.876;2.136;2022-10-13T12:36:25;6.25;;;2.97;;
61085;SDS011;46967;48.876;2.136;2022-10-13T12:38:57;7.30;;;2.65;;
61085;SDS011;46967;48.876;2.136;2022-10-13T12:41:26;6.35;;;2.40;;
61085;SDS011;46967;48.876;2.136;2022-10-13T12:43:54;5.22;;;1.95;;
61085;SDS011;46967;48.876;2.136;2022-10-13T12:49:14;4.18;;;2.13;;
61085;SDS011;46967;48.876;2.136;2022-10-13T12:51:44;5.15;;;2.08;;
61085;SDS011;46967;48.876;2.136;2022-10-13T12:54:17;5.82;;;2.30;;
61085;SDS011;46967;48.876;2.136;2022-10-13T12:56:47;7.38;;;1.90;;
61085;SDS011;46967;48.876;2.136;2022-10-13T12:59:15;4.30;;;2.03;;
61085;SDS011;46967;48.876;2.136;2022-10-13T13:01:42;3.90;;;2.38;;
61085;SDS011;46967;48.876;2.136;2022-10-13T13:06:51;7.20;;;1.98;;
61085;SDS011;46967;48.876;2.136;2022-10-13T13:09:24;6.30;;;1.67;;
61085;SDS011;46967;48.876;2.136;2022-10-13T13:14:45;4.78;;;1.55;;
61085;SDS011;46967;48.876;2.136;2022-10-13T13:19:44;4.22;;;1.50;;
61085;SDS011;46967;48.876;2.136;2022-10-13T13:22:11;2.40;;;1.40;;
61085;SDS011;46967;48.876;2.136;2022-10-13T13:24:36;3.00;;;1.52;;
61085;SDS011;46967;48.876;2.136;2022-10-13T13:27:15;3.60;;;1.50;;
61085;SDS011;46967;48.876;2.136;2022-10-13T13:29:46;2.78;;;1.42;;
61085;SDS011;46967;48.876;2.136;2022-10-13T13:32:13;4.47;;;1.60;;
61085;SDS011;46967;48.876;2.136;2022-10-13T13:34:40;3.00;;;1.83;;
61085;SDS011;46967;48.876;2.136;2022-10-13T13:37:19;3.72;;;1.83;;
61085;SDS011;46967;48.876;2.136;2022-10-13T13:39:48;4.63;;;2.00;;
61085;SDS011;46967;48.876;2.136;2022-10-13T13:42:14;3.63;;;1.65;;
61085;SDS011;46967;48.876;2.136;2022-10-13T13:44:40;4.85;;;1.80;;
61085;SDS011;46967;48.876;2.136;2022-10-13T13:47:09;4.93;;;1.73;;
61085;SDS011;46967;48.876;2.136;2022-10-13T13:49:39;4.30;;;1.95;;
61085;SDS011;46967;48.876;2.136;2022-10-13T13:52:04;3.78;;;2.05;;
61085;SDS011;46967;48.876;2.136;2022-10-13T13:54:30;4.80;;;1.95;;
61085;SDS011;46967;48.876;2.136;2022-10-13T13:56:55;3.80;;;2.03;;
61085;SDS011;46967;48.876;2.136;2022-10-13T13:59:20;9.27;;;2.30;;
61085;SDS011;46967;48.876;2.136;2022-10-13T14:01:46;5.18;;;2.08;;
61085;SDS011;46967;48.876;2.136;2022-10-13T14:04:11;4.50;;;2.13;;
61085;SDS011;46967;48.876;2.136;2022-10-13T14:06:36;6.68;;;2.22;;
61085;SDS011;46967;48.876;2.136;2022-10-13T14:09:02;4.32;;;2.22;;
61085;SDS011;46967;48.876;2.136;2022-10-13T14:11:28;4.15;;;2.10;;
61085;SDS011;46967;48.876;2.136;2022-10-13T14:13:53;4.43;;;2.33;;
61085;SDS011;46967;48.876;2.136;2022-10-13T14:16:22;7.00;;;2.38;;
61085;SDS011;46967;48.876;2.136;2022-10-13T14:18:47;6.63;;;2.10;;
61085;SDS011;46967;48.876;2.136;2022-10-13T14:21:12;6.00;;;2.17;;
61085;SDS011;46967;48.876;2.136;2022-10-13T14:23:38;3.97;;;2.10;;
61085;SDS011;46967;48.876;2.136;2022-10-13T14:26:05;4.80;;;2.53;;
61085;SDS011;46967;48.876;2.136;2022-10-13T14:28:31;5.85;;;2.20;;
61085;SDS011;46967;48.876;2.136;2022-10-13T14:30:57;7.03;;;2.38;;
61085;SDS011;46967;48.876;2.136;2022-10-13T14:33:22;4.30;;;2.30;;
61085;SDS011;46967;48.876;2.136;2022-10-13T14:35:47;6.32;;;2.28;;
61085;SDS011;46967;48.876;2.136;2022-10-13T14:38:13;5.47;;;2.10;;
61085;SDS011;46967;48.876;2.136;2022-10-13T14:40:41;6.57;;;2.40;;
61085;SDS011;46967;48.876;2.136;2022-10-13T14:43:06;6.18;;;2.50;;
61085;SDS011;46967;48.876;2.136;2022-10-13T14:45:32;5.50;;;1.90;;
61085;SDS011;46967;48.876;2.136;2022-10-13T14:47:57;5.78;;;2.28;;
61085;SDS011;46967;48.876;2.136;2022-10-13T14:50:22;4.25;;;2.20;;
61085;SDS011;46967;48.876;2.136;2022-10-13T14:52:48;4.90;;;2.00;;
61085;SDS011;46967;48.876;2.136;2022-10-13T14:55:13;10.52;;;2.55;;
61085;SDS011;46967;48.876;2.136;2022-10-13T14:57:38;3.90;;;2.35;;
61085;SDS011;46967;48.876;2.136;2022-10-13T15:00:04;6.63;;;2.22;;
61085;SDS011;46967;48.876;2.136;2022-10-13T15:02:30;6.75;;;2.60;;
61085;SDS011;46967;48.876;2.136;2022-10-13T15:04:55;6.57;;;2.90;;
61085;SDS011;46967;48.876;2.136;2022-10-13T15:07:21;5.53;;;2.42;;
61085;SDS011;46967;48.876;2.136;2022-10-13T15:09:47;8.55;;;2.75;;
61085;SDS011;46967;48.876;2.136;2022-10-13T15:12:12;6.15;;;2.85;;
61085;SDS011;46967;48.876;2.136;2022-10-13T15:14:37;8.02;;;2.42;;
61085;SDS011;46967;48.876;2.136;2022-10-13T15:17:03;6.78;;;2.38;;
61085;SDS011;46967;48.876;2.136;2022-10-13T15:19:28;6.22;;;2.55;;
61085;SDS011;46967;48.876;2.136;2022-10-13T15:21:54;6.90;;;2.30;;
61085;SDS011;46967;48.876;2.136;2022-10-13T15:24:19;7.25;;;2.33;;
61085;SDS011;46967;48.876;2.136;2022-10-13T15:26:45;5.90;;;2.50;;
61085;SDS011;46967;48.876;2.136;2022-10-13T15:29:10;3.53;;;2.17;;
61085;SDS011;46967;48.876;2.136;2022-10-13T15:31:36;5.22;;;2.63;;
61085;SDS011;46967;48.876;2.136;2022-10-13T15:34:01;4.30;;;2.53;;
61085;SDS011;46967;48.876;2.136;2022-10-13T15:36:26;4.75;;;2.22;;
61085;SDS011;46967;48.876;2.136;2022-10-13T15:38:52;6.25;;;2.38;;
61085;SDS011;46967;48.876;2.136;2022-10-13T15:41:17;6.88;;;2.67;;
61085;SDS011;46967;48.876;2.136;2022-10-13T15:43:43;5.45;;;2.53;;
61085;SDS011;46967;48.876;2.136;2022-10-13T15:46:10;6.88;;;2.20;;
61085;SDS011;46967;48.876;2.136;2022-10-13T15:48:37;5.00;;;2.28;;
61085;SDS011;46967;48.876;2.136;2022-10-13T15:51:12;7.25;;;2.60;;
61085;SDS011;46967;48.876;2.136;2022-10-13T15:53:39;4.38;;;2.65;;
61085;SDS011;46967;48.876;2.136;2022-10-13T15:56:05;4.90;;;2.35;;
61085;SDS011;46967;48.876;2.136;2022-10-13T15:58:31;5.63;;;2.50;;
61085;SDS011;46967;48.876;2.136;2022-10-13T16:00:58;8.05;;;2.13;;
61085;SDS011;46967;48.876;2.136;2022-10-13T16:03:24;6.30;;;2.22;;
61085;SDS011;46967;48.876;2.136;2022-10-13T16:05:53;6.47;;;2.58;;
61085;SDS011;46967;48.876;2.136;2022-10-13T16:08:19;5.53;;;2.40;;
61085;SDS011;46967;48.876;2.136;2022-10-13T16:10:44;4.18;;;2.50;;
61085;SDS011;46967;48.876;2.136;2022-10-13T16:13:11;6.63;;;2.30;;
61085;SDS011;46967;48.876;2.136;2022-10-13T16:15:38;6.35;;;2.40;;
61085;SDS011;46967;48.876;2.136;2022-10-13T16:18:03;6.22;;;2.40;;
61085;SDS011;46967;48.876;2.136;2022-10-13T16:20:28;3.83;;;2.53;;
61085;SDS011;46967;48.876;2.136;2022-10-13T16:22:59;6.07;;;2.70;;
61085;SDS011;46967;48.876;2.136;2022-10-13T16:25:25;6.65;;;2.80;;